• Join FlightAware (Why Join?)
  • Login
  • US Flag 
03:07PM EDT


 

Airport Tracker/Info


-or-


 

Live Flight TrackerFlight Track Log ✈ EGF2747 ✈ 08-Jun-2012 ✈ KDFW - KGSP

Flight Track Log - Related Links

Times and Time Zones

All times are in EDT time to prevent confusion due to time zone crossing. See the EGF2747 flight status page for this flight to view local times or setup timezone preferences in your user account.

Time Position Orientation Groundspeed Altitude Reporting Facility
EDT Latitude Longitude Course Direction KTS MPH feet Rate Location/Type
09:13PM 32.8769 -97.0300 138° Southeast 178 205 1,200  Level FAA TRACON SMA TRACON (SMA)
09:18PM 32.6933 -96.8339 71° East 291 335 9,600 1,680 Climbing FAA TRACON SMA TRACON (SMA)
09:19PM 32.7122 -96.7675 66° East 311 358 10,200 660 Climbing FAA TRACON SMA TRACON (SMA)
09:19PM 32.7353 -96.7047 67° East 338 389 10,500 360 Climbing FAA TRACON SMA TRACON (SMA)
09:20PM 32.7625 -96.6294 67° East 360 414 10,700 900 Climbing FAA TRACON SMA TRACON (SMA)
09:21PM 32.7903 -96.5528 68° East 364 419 11,700 1,560 Climbing FAA TRACON SMA TRACON (SMA)
09:21PM 32.8164 -96.4775 67° East 355 409 12,800 1,500 Climbing FAA TRACON SMA TRACON (SMA)
09:22PM 32.8397 -96.4117 67° East 350 403 13,700 1,500 Climbing FAA TRACON SMA TRACON (SMA)
09:23PM 32.8661 -96.3383 86° East 349 402 14,800 1,500 Climbing FAA TRACON SMA TRACON (SMA)
09:23PM 32.8711 -96.2597 88° East 345 397 15,800 1,320 Climbing FAA TRACON SMA TRACON (SMA)
09:24PM 32.8733 -96.1892 88° East 348 400 16,600 1,200 Climbing FAA TRACON SMA TRACON (SMA)
09:25PM 32.8758 -96.1086 89° East 354 407 17,400 1,140 Climbing FAA TRACON SMA TRACON (SMA)
09:25PM 32.8769 -96.0267 88° East 359 413 18,200 1,020 Climbing FAA TRACON SMA TRACON (SMA)
09:26PM 32.8794 -95.9528 89° East 365 420 18,800 1,020 Climbing FAA TRACON SMA TRACON (SMA)
09:27PM 32.8808 -95.8686 92° East 370 426 19,600 1,080 Climbing FAA TRACON SMA TRACON (SMA)
09:28PM 32.8767 -95.7536 89° East 369 425 20,600 1,020 Climbing Fort Worth Center
09:29PM 32.8792 -95.6250 89° East 375 432 21,600 960 Climbing Fort Worth Center
09:30PM 32.8814 -95.4989 89° East 381 438 22,600 1,020 Climbing Fort Worth Center
09:31PM 32.8836 -95.3700 83° East 386 444 23,700 1,020 Climbing Fort Worth Center
09:32PM 32.8961 -95.2436 79° East 379 436 24,700 1,020 Climbing Fort Worth Center
09:33PM 32.9169 -95.1169 80° East 386 444 25,800 1,020 Climbing Fort Worth Center
09:34PM 32.9353 -94.9903 79° East 391 450 26,800 1,020 Climbing Fort Worth Center
09:35PM 32.9558 -94.8633 79° East 391 450 27,900 1,020 Climbing Fort Worth Center
09:36PM 32.9761 -94.7342 80° East 391 450 28,900 960 Climbing Fort Worth Center
09:37PM 32.9942 -94.6072 81° East 391 450 29,900 1,020 Climbing Fort Worth Center
09:38PM 33.0122 -94.4778 79° East 391 450 31,000 1,020 Climbing Fort Worth Center
09:39PM 33.0319 -94.3533 81° East 391 450 32,000 960 Climbing Fort Worth Center
09:40PM 33.0497 -94.2214 80° East 391 450 33,000 780 Climbing Fort Worth Center
09:41PM 33.0692 -94.0917 81° East 391 450 33,600 780 Climbing Fort Worth Center
09:42PM 33.0867 -93.9597 81° East 391 450 34,600 960 Climbing Fort Worth Center
09:43PM 33.1039 -93.8275 80° East 396 456 35,600 840 Climbing Fort Worth Center
09:44PM 33.1228 -93.6953 80° East 396 456 36,300 660 Climbing Fort Worth Center
09:45PM 33.1419 -93.5681 79° East 396 456 37,000 300 Climbing Fort Worth Center
09:46PM 33.1631 -93.4356 81° East 391 450 37,000  Level Fort Worth Center
09:47PM 33.1814 -93.2958 80° East 405 466 37,000  Level Fort Worth Center
09:48PM 33.2017 -93.1508 80° East 426 490 37,000  Level Fort Worth Center
09:49PM 33.2236 -93.0033 81° East 439 505 37,000  Level Fort Worth Center
09:50PM 33.2433 -92.8508 81° East 451 519 37,000  Level Fort Worth Center
09:51PM 33.2644 -92.6933 84° East 461 531 37,000  Level Fort Worth Center
09:52PM 33.2775 -92.5386 83° East 471 542 37,000  Level Fort Worth Center
09:53PM 33.3022 -92.2911 85° East 503 579 37,000  Level Memphis Center
09:54PM 33.3128 -92.1347 83° East 486 559 37,000  Level Memphis Center
09:55PM 33.3272 -91.9833 84° East 472 543 37,000  Level Memphis Center
09:56PM 33.3419 -91.8219 86° East 467 537 37,000  Level Memphis Center
09:57PM 33.3497 -91.6828 84° East 467 537 37,000  Level Memphis Center
09:58PM 33.3636 -91.5286 85° East 467 537 37,000  Level Memphis Center
09:59PM 33.3756 -91.3722 84° East 467 537 37,000  Level Memphis Center
10:00PM 33.3914 -91.1983 85° East 472 543 37,000  Level Memphis Center
10:01PM 33.4028 -91.0417 84° East 472 543 37,000  Level Memphis Center
10:02PM 33.4161 -90.8822 84° East 477 549 37,000  Level Memphis Center
10:03PM 33.4292 -90.7256 84° East 477 549 37,000  Level Memphis Center
10:04PM 33.4419 -90.5689 85° East 477 549 37,000  Level Memphis Center
10:05PM 33.4547 -90.4069 86° East 482 555 37,000  Level Memphis Center
10:06PM 33.4650 -90.2478 89° East 482 555 37,000  Level Memphis Center
10:07PM 33.4669 -90.0883 89° East 482 555 37,000  Level Memphis Center
10:08PM 33.4686 -89.9314 88° East 477 549 37,000  Level Memphis Center
10:09PM 33.4722 -89.7694 89° East 477 549 37,000  Level Memphis Center
10:10PM 33.4753 -89.6075 89° East 477 549 37,000  Level Memphis Center
10:11PM 33.4783 -89.4431 89° East 477 549 37,000  Level Memphis Center
10:12PM 33.4814 -89.2836 90° East 477 549 37,000  Level Memphis Center
10:13PM 33.4819 -89.1219 89° East 477 549 37,000  Level Memphis Center
10:14PM 33.4844 -88.9575 91° East 477 549 37,000  Level Memphis Center
10:15PM 33.4825 -88.8006 88° East 477 549 37,000  Level Memphis Center
10:16PM 33.4867 -88.6386 88° East 477 549 37,000  Level Memphis Center
10:17PM 33.4906 -88.4817 82° East 477 549 37,000  Level Memphis Center
10:18PM 33.5089 -88.3192 82° East 482 555 37,000  Level Memphis Center
10:19PM 33.5269 -88.1594 82° East 482 555 37,000  Level Memphis Center
10:21PM 33.5564 -87.8950 82° East 496 571 37,000  Level Atlanta Center
10:22PM 33.5761 -87.7339 83° East 501 577 37,000  Level Atlanta Center
10:23PM 33.5933 -87.5675 82° East 501 577 37,000  Level Atlanta Center
10:24PM 33.6125 -87.4036 83° East 501 577 37,000  Level Atlanta Center
10:25PM 33.6294 -87.2397 82° East 501 577 37,000  Level Atlanta Center
10:26PM 33.6483 -87.0758 83° East 501 577 37,000  Level Atlanta Center
10:27PM 33.6644 -86.9267 89° East 501 577 37,000  Level Atlanta Center
10:28PM 33.6661 -86.7619 89° East 501 577 37,000  Level Atlanta Center
10:29PM 33.6675 -86.5922 91° East 496 571 37,000  Level Atlanta Center
10:30PM 33.6647 -86.4272 91° East 496 571 37,000  Level Atlanta Center
10:31PM 33.6617 -86.2575 91° East 496 571 37,000  Level Atlanta Center
10:32PM 33.6603 -86.0903 91° East 502 578 37,000 -240 Level Atlanta Center
10:33PM 33.6589 -85.9231 90° East 495 570 36,600 -780 Descending Atlanta Center
10:34PM 33.6594 -85.7433 91° East 490 564 35,500 -840 Descending Atlanta Center
10:35PM 33.6572 -85.5936 93° East 490 564 35,000 -300 Descending Atlanta Center
10:36PM 33.6508 -85.4239 91° East 499 574 35,000  Level Atlanta Center
10:37PM 33.6483 -85.2542 93° East 506 582 35,000  Level Atlanta Center
10:38PM 33.6417 -85.0844 91° East 506 582 35,000 -420 Level Atlanta Center
10:39PM 33.6389 -84.9147 91° East 506 582 34,200 -900 Descending Atlanta Center
10:40PM 33.6358 -84.7250 91° East 506 582 33,200 -1,020 Descending Atlanta Center
10:41PM 33.6325 -84.5603 87° East 506 582 32,200 -1,620 Descending Atlanta Center
10:42PM 33.6392 -84.3981 75° East 498 573 30,000 -2,100 Descending Atlanta Center
10:43PM 33.6708 -84.2511 66° East 475 547 28,000 -1,440 Descending Atlanta Center
10:44PM 33.7233 -84.1089 70° East 476 548 27,200 -900 Descending Atlanta Center
10:45PM 33.7672 -83.9614 71° East 476 548 26,200 -960 Descending Atlanta Center
10:46PM 33.8086 -83.8139 71° East 462 532 25,300 -960 Descending Atlanta Center
10:47PM 33.8500 -83.6661 71° East 462 532 24,300 -960 Descending Atlanta Center
10:48PM 33.8892 -83.5258 71° East 456 525 23,400 -960 Descending Atlanta Center
10:49PM 33.9281 -83.3878 55° Northeast 445 512 22,400 -1,020 Descending Atlanta Center
10:50PM 34.0025 -83.2594 43° Northeast 421 484 21,400 -1,020 Descending Atlanta Center
10:51PM 34.0894 -83.1608 42° Northeast 421 484 20,400 -1,260 Descending Atlanta Center
10:52PM 34.1744 -83.0669 42° Northeast 421 484 18,900 -2,280 Descending Atlanta Center
10:53PM 34.2572 -82.9781 45° Northeast 407 468 15,900 -3,240 Descending Atlanta Center
10:54PM 34.3294 -82.8892 43° Northeast 379 436 12,500 -2,400 Descending Atlanta Center
10:55PM 34.4036 -82.8050 45° Northeast 364 419 11,200 -960 Descending Atlanta Center
10:56PM 34.4758 -82.7183 51° Northeast 358 412 10,700 -540 Descending Atlanta Center
10:57PM 34.5333 -82.6317 51° Northeast 350 403 10,200 -960 Descending Atlanta Center
10:58PM 34.5825 -82.5578 41° Northeast 311 358 8,800 -1,560 Descending Atlanta Center
10:59PM 34.6403 -82.4961 32° Northeast 280 322 7,100 -1,680 Descending Atlanta Center
11:00PM 34.7022 -82.4494 23° Northeast 270 311 5,500 -1,080 Descending Atlanta Center
11:01PM 34.7728 -82.4128 21° North 265 305 5,000 -300 Descending Atlanta Center
11:02PM 34.8350 -82.3839 27° Northeast 256 295 5,000  Level Atlanta Center
11:03PM 34.8867 -82.3522 27° Northeast 225 259 5,000  Level Atlanta Center